Time;durP1;ratioP1;P1;durP2;ratioP2;P2;SDS_P1;SDS_P2;PMS_P1;PMS_P2;Temp;Humidity;BMP_temperature;BMP_pressure;BME280_temperature;BME280_humidity;BME280_pressure;Samples;Min_cycle;Max_cycle;Signal;HPM_P1;HPM_P2
2021/12/25 00:02:01;62790.00;0.21;109.30;0.00;0.00;0.62;;;;;14.00;1.00;;;;;;2272836;61;907;-89
2021/12/25 00:09:34;103070.00;0.34;178.87;0.00;0.00;0.62;;;;;13.90;1.00;;;;;;2274294;61;1173;-88
2021/12/25 00:12:01;169873.00;0.57;294.05;0.00;0.00;0.62;;;;;14.00;1.00;;;;;;2264354;61;813;-88
2021/12/25 03:03:28;82243.00;0.27;142.91;0.00;0.00;0.62;;;;;13.50;1.00;;;;;;2275119;61;881;-87
2021/12/25 05:32:44;63701.00;0.21;110.87;0.00;0.00;0.62;;;;;14.00;1.00;;;;;;2520829;40;3435;31
2021/12/25 07:58:20;60350.00;0.20;105.08;0.00;0.00;0.62;;;;;12.20;1.00;;;;;;2525180;39;3449;31
2021/12/25 10:11:25;143991.00;0.48;249.45;0.00;0.00;0.62;;;;;13.70;1.00;;;;;;2383010;39;3785;31
2021/12/25 11:24:16;100912.00;0.34;175.15;0.00;0.00;0.62;;;;;14.40;1.00;;;;;;2278113;61;1169;-82
2021/12/25 11:29:35;1425445.00;4.75;2503.60;78549.00;0.26;136.53;;;;;14.70;1.00;;;;;;2271778;61;1211;-88
2021/12/25 11:32:18;307336.00;1.02;530.53;0.00;0.00;0.62;;;;;14.90;1.00;;;;;;2269431;61;1134;-89
2021/12/25 11:34:46;235847.00;0.79;407.61;4838.00;0.02;9.00;;;;;14.80;1.00;;;;;;2269317;61;1184;-88
2021/12/25 11:37:16;453463.00;1.51;781.74;24492.00;0.08;43.05;;;;;14.90;1.00;;;;;;2268694;61;1672;-88
2021/12/25 11:39:47;421462.00;1.40;726.70;0.00;0.00;0.62;;;;;15.20;1.00;;;;;;2269273;61;1650;-88
2021/12/25 11:42:15;292245.00;0.97;504.59;0.00;0.00;0.62;;;;;15.20;1.00;;;;;;2269730;61;1969;-89
2021/12/25 11:44:49;450318.00;1.50;776.33;89104.00;0.30;154.76;;;;;15.10;1.00;;;;;;2272151;61;1697;-88
2021/12/25 11:47:33;403100.00;1.34;695.13;3333.00;0.01;6.40;;;;;14.80;1.00;;;;;;2271300;61;1647;-88
2021/12/25 11:50:05;323544.00;1.08;558.39;0.00;0.00;0.62;;;;;14.80;1.00;;;;;;2272308;61;1163;-89
2021/12/25 11:52:38;394728.00;1.32;680.74;0.00;0.00;0.62;;;;;15.00;1.00;;;;;;2272243;61;1079;-88
2021/12/25 11:55:47;258687.00;0.86;446.89;0.00;0.00;0.62;;;;;15.00;1.00;;;;;;2269135;61;1647;-89
2021/12/25 11:58:41;345149.00;1.15;595.52;29062.00;0.10;50.96;;;;;14.90;1.00;;;;;;2269019;61;1682;-89
2021/12/25 12:01:25;369481.00;1.23;637.34;0.00;0.00;0.62;;;;;14.80;1.00;;;;;;2268991;61;2032;-88
2021/12/25 12:03:56;320229.00;1.07;552.69;0.00;0.00;0.62;;;;;14.80;1.00;;;;;;2265749;61;1619;-88
2021/12/25 12:07:00;259948.00;0.87;449.06;0.00;0.00;0.62;;;;;15.00;1.00;;;;;;2268746;61;1185;-89
2021/12/25 12:09:39;307645.00;1.03;531.06;0.00;0.00;0.62;;;;;15.20;1.00;;;;;;2236869;62;1067;-89
2021/12/25 12:12:18;426633.00;1.42;735.60;0.00;0.00;0.62;;;;;15.20;1.00;;;;;;2238049;62;1741;-89
2021/12/25 12:14:46;438530.00;1.46;756.05;0.00;0.00;0.62;;;;;15.10;1.00;;;;;;2238597;62;1169;-89
2021/12/25 12:17:38;352942.00;1.18;608.92;0.00;0.00;0.62;;;;;15.30;1.00;;;;;;2237727;62;1774;-88
2021/12/25 12:20:15;543654.00;1.81;937.02;93402.00;0.31;162.18;;;;;15.20;1.00;;;;;;2237440;62;1733;-88
2021/12/25 12:23:06;434623.00;1.45;749.34;90243.00;0.30;156.73;;;;;15.40;1.00;;;;;;2236866;62;1962;-88
2021/12/25 12:28:52;547730.00;1.83;944.05;0.00;0.00;0.62;;;;;15.40;1.00;;;;;;2246808;61;1407;-89
2021/12/25 12:31:40;172889.00;0.58;299.24;0.00;0.00;0.62;;;;;15.40;1.00;;;;;;2252675;61;1149;-89
2021/12/25 12:34:44;427271.00;1.42;736.69;0.00;0.00;0.62;;;;;15.30;1.00;;;;;;2252448;61;1711;-89
2021/12/25 12:37:30;327879.00;1.09;565.84;0.00;0.00;0.62;;;;;15.10;1.00;;;;;;2247771;61;1289;-88
2021/12/25 12:40:25;148774.00;0.50;257.69;0.00;0.00;0.62;;;;;15.30;1.00;;;;;;2247659;61;1782;-88
2021/12/25 12:42:56;572517.00;1.91;986.79;0.00;0.00;0.62;;;;;15.60;1.00;;;;;;2248412;61;1130;-88
2021/12/25 12:45:28;274443.00;0.91;473.98;0.00;0.00;0.62;;;;;15.50;1.00;;;;;;2247201;61;1164;-89
2021/12/25 12:48:19;322478.00;1.07;556.56;0.00;0.00;0.62;;;;;15.40;1.00;;;;;;2265568;61;1333;-88
2021/12/25 12:50:49;413951.00;1.38;713.79;0.00;0.00;0.62;;;;;15.30;1.00;;;;;;2260530;61;1045;-88
2021/12/25 12:53:18;450904.00;1.50;777.34;0.00;0.00;0.62;;;;;15.20;1.00;;;;;;2261089;61;1196;-88
2021/12/25 12:55:47;281598.00;0.94;486.28;0.00;0.00;0.62;;;;;15.20;1.00;;;;;;2261817;61;1067;-88
2021/12/25 12:58:17;119628296.00;398.76;69350936.00;0.00;0.00;0.62;;;;;15.00;1.00;;;;;;2261311;61;1389;-89
2021/12/25 13:00:55;283608.00;0.95;489.74;0.00;0.00;0.62;;;;;15.10;1.00;;;;;;2258008;61;1930;-89
2021/12/25 13:03:24;271189.00;0.90;468.39;0.00;0.00;0.62;;;;;15.10;1.00;;;;;;2257458;61;1109;-89
2021/12/25 13:05:57;391083.00;1.30;674.48;0.00;0.00;0.62;;;;;15.20;1.00;;;;;;2251196;61;1081;-89
2021/12/25 13:08:28;393623.00;1.31;678.84;5724.00;0.02;10.54;;;;;15.30;1.00;;;;;;2254095;61;1472;-89
2021/12/25 13:11:04;284629.00;0.95;491.50;0.00;0.00;0.62;;;;;15.40;1.00;;;;;;2257296;61;1196;-89
2021/12/25 13:13:37;317448.00;1.06;547.91;20120.00;0.07;35.48;;;;;15.40;1.00;;;;;;2257453;61;1799;-88
2021/12/25 13:16:09;260172.00;0.87;449.44;0.00;0.00;0.62;;;;;15.30;1.00;;;;;;2257435;61;1124;-88
2021/12/25 13:18:42;379327.00;1.26;654.27;0.00;0.00;0.62;;;;;15.30;1.00;;;;;;2254448;61;1357;-88
2021/12/25 13:21:15;281194.00;0.94;485.59;0.00;0.00;0.62;;;;;15.20;1.00;;;;;;2266065;61;1986;-89
2021/12/25 13:23:50;444172.00;1.48;765.76;0.00;0.00;0.62;;;;;15.10;1.00;;;;;;2266941;61;974;-89
2021/12/25 13:26:20;317350.00;1.06;547.74;0.00;0.00;0.62;;;;;15.10;1.00;;;;;;2267267;61;1240;-89
2021/12/25 13:28:48;393361.00;1.31;678.39;0.00;0.00;0.62;;;;;15.10;1.00;;;;;;2268063;61;1325;-89
2021/12/25 13:31:21;362515.00;1.21;625.37;0.00;0.00;0.62;;;;;15.10;1.00;;;;;;2268545;61;1180;-89
2021/12/25 13:34:00;381888.00;1.27;658.67;0.00;0.00;0.62;;;;;15.20;1.00;;;;;;2267688;61;1092;-88
2021/12/25 13:36:32;243503.00;0.81;420.78;0.00;0.00;0.62;;;;;15.10;1.00;;;;;;2266348;61;1583;-88
2021/12/25 13:39:07;444817.00;1.48;766.87;0.00;0.00;0.62;;;;;15.30;1.00;;;;;;2266168;61;1188;-88
2021/12/25 13:41:37;333036.00;1.11;574.70;0.00;0.00;0.62;;;;;15.20;1.00;;;;;;2266279;61;1944;-88
2021/12/25 13:44:12;286515.00;0.96;494.74;0.00;0.00;0.62;;;;;15.00;1.00;;;;;;2266486;61;1229;-89
2021/12/25 13:46:45;373126.00;1.24;643.61;0.00;0.00;0.62;;;;;15.10;1.00;;;;;;2266651;61;1415;-88
2021/12/25 13:49:37;355192.00;1.18;612.78;0.00;0.00;0.62;;;;;14.70;1.00;;;;;;2266465;61;1686;-88
2021/12/25 13:52:07;269368.00;0.90;465.26;0.00;0.00;0.62;;;;;14.60;1.00;;;;;;2259300;61;1184;-88
2021/12/25 13:54:36;552118.00;1.84;951.61;0.00;0.00;0.62;;;;;14.60;1.00;;;;;;2266161;61;1113;-88
2021/12/25 13:57:11;515790.00;1.72;889.01;0.00;0.00;0.62;;;;;14.60;1.00;;;;;;2266327;61;1282;-88
2021/12/25 13:59:41;231439.00;0.77;400.02;0.00;0.00;0.62;;;;;14.70;1.00;;;;;;2266641;61;1211;-88
2021/12/25 14:02:18;327891.00;1.09;565.86;0.00;0.00;0.62;;;;;14.60;1.00;;;;;;2266398;61;2012;-88
2021/12/25 14:04:51;365672.00;1.22;630.80;84861.00;0.28;147.43;;;;;14.80;1.00;;;;;;2266474;61;1549;-88
2021/12/25 14:07:21;431930.00;1.44;744.70;81729.00;0.27;142.02;;;;;14.90;1.00;;;;;;2266345;61;1304;-88
2021/12/25 14:09:57;562214.00;1.87;969.02;90997.00;0.30;158.03;;;;;15.00;1.00;;;;;;2266301;61;1652;-88
2021/12/25 14:12:26;643175.00;2.14;1108.83;86364.00;0.29;150.03;;;;;14.90;1.00;;;;;;2266234;61;1817;-89
2021/12/25 14:14:54;541018.00;1.80;932.48;81853.00;0.27;142.24;;;;;15.00;1.00;;;;;;2266392;61;1125;-89
2021/12/25 14:17:24;421707.00;1.41;727.13;89990.00;0.30;156.29;;;;;14.90;1.00;;;;;;2266735;61;1383;-88
2021/12/25 14:20:03;492188.00;1.64;848.38;89476.00;0.30;155.40;;;;;14.90;1.00;;;;;;2266894;61;1091;-89
2021/12/25 14:22:33;670330.00;2.23;1155.82;56621.00;0.19;98.64;;;;;14.90;1.00;;;;;;2268124;61;1924;-89
2021/12/25 14:25:00;861190.00;2.87;1488.06;85638.00;0.29;148.78;;;;;14.80;1.00;;;;;;2268537;61;1229;-89
2021/12/25 14:27:32;442609.00;1.48;763.07;87929.00;0.29;152.73;;;;;14.90;1.00;;;;;;2268436;61;1664;-89
2021/12/25 14:30:12;810182.00;2.70;1398.89;87491.00;0.29;151.98;;;;;14.80;1.00;;;;;;2267907;61;985;-88
2021/12/25 14:33:01;702532.00;2.34;1211.63;0.00;0.00;0.62;;;;;14.80;1.00;;;;;;2267897;61;1146;-89
2021/12/25 14:35:38;445465.00;1.48;767.98;27458.00;0.09;48.18;;;;;15.00;1.00;;;;;;2268332;61;1582;-89
2021/12/25 14:38:05;242598.00;0.81;419.22;0.00;0.00;0.62;;;;;14.90;1.00;;;;;;2265044;61;1471;-88
2021/12/25 14:40:45;340060.00;1.13;586.78;0.00;0.00;0.62;;;;;15.00;1.00;;;;;;2267342;61;1654;-88
2021/12/25 14:43:17;232377.00;0.77;401.64;0.00;0.00;0.62;;;;;15.10;1.00;;;;;;2268032;61;1930;-88
2021/12/25 14:45:51;183308.00;0.61;317.19;0.00;0.00;0.62;;;;;15.20;1.00;;;;;;2264651;61;1675;-88
2021/12/25 14:48:32;547643.00;1.83;943.90;0.00;0.00;0.62;;;;;15.10;1.00;;;;;;2264380;61;1621;-88
2021/12/25 14:51:05;270677.00;0.90;467.51;0.00;0.00;0.62;;;;;14.90;1.00;;;;;;2264075;61;1654;-88
2021/12/25 14:53:32;211910.00;0.71;366.42;0.00;0.00;0.62;;;;;14.90;1.00;;;;;;2264370;61;1204;-88
2021/12/25 14:56:02;245751.00;0.82;424.64;0.00;0.00;0.62;;;;;14.60;1.00;;;;;;2263870;61;1116;-88
2021/12/25 14:58:32;418132.00;1.39;720.98;0.00;0.00;0.62;;;;;14.50;1.00;;;;;;2264346;61;1436;-88
2021/12/25 15:01:27;399219.00;1.33;688.46;11350.00;0.04;20.29;;;;;14.60;1.00;;;;;;2264236;61;1658;-88
2021/12/25 15:04:19;199191.00;0.66;344.53;0.00;0.00;0.62;;;;;14.50;1.00;;;;;;2264694;61;1275;-88
2021/12/25 15:06:54;218126.00;0.73;377.12;0.00;0.00;0.62;;;;;14.70;1.00;;;;;;2264589;61;1671;-88
2021/12/25 15:09:35;319251.00;1.06;551.01;0.00;0.00;0.62;;;;;14.80;1.00;;;;;;2265118;61;1590;-89
2021/12/25 15:12:15;349044.00;1.16;602.22;0.00;0.00;0.62;;;;;14.80;1.00;;;;;;2264438;61;1075;-88
2021/12/25 15:14:49;221455.00;0.74;382.85;0.00;0.00;0.62;;;;;14.70;1.00;;;;;;2264233;61;1128;-88
2021/12/25 15:17:25;418757.00;1.40;722.05;0.00;0.00;0.62;;;;;14.60;1.00;;;;;;2264736;61;1451;-88
2021/12/25 15:20:02;404937.00;1.35;698.29;36313.00;0.12;63.51;;;;;14.60;1.00;;;;;;2265147;61;1743;-88
2021/12/25 15:22:59;;;;;;;;;;;;;;;;;;;;;
2021/12/25 15:25:29;612530.00;2.04;1055.86;82234.00;0.27;142.90;;;;;14.60;1.00;;;;;;2264320;61;1167;-88
2021/12/25 15:27:58;656343.00;2.19;1131.61;98885.00;0.33;171.65;;;;;14.70;1.00;;;;;;2264055;61;1592;-89
2021/12/25 15:31:01;627716.00;2.09;1082.10;118703.00;0.40;205.85;;;;;14.70;1.00;;;;;;2264756;61;1100;-89
2021/12/25 15:38:07;;;;;;;;;;;;;;;;;;;;;
2021/12/25 15:40:46;799618.00;2.67;1380.46;81823.00;0.27;142.19;;;;;15.60;1.00;;;;;;2251378;61;1172;-88
2021/12/25 15:43:18;673557.00;2.25;1161.41;82380.00;0.27;143.15;;;;;15.80;1.00;;;;;;2252815;61;2034;-88
2021/12/25 15:46:03;;;;;;;;;;;;;;;;;;;;;
2021/12/25 15:48:37;682420.00;2.27;1176.77;0.00;0.00;0.62;;;;;16.00;1.00;;;;;;2253840;61;1454;-88
2021/12/25 15:51:21;;;;;;;;;;;;;;;;;;;;;
2021/12/25 15:56:40;255148.00;0.85;440.80;0.00;0.00;0.62;;;;;16.30;1.00;;;;;;2253866;61;1536;-88
2021/12/25 15:59:07;237081.00;0.79;409.73;0.00;0.00;0.62;;;;;16.00;1.00;;;;;;2264584;61;1136;-89
2021/12/25 16:01:34;370656.00;1.24;639.36;0.00;0.00;0.62;;;;;15.40;1.00;;;;;;2267037;61;1925;-88
2021/12/25 16:04:01;244374.00;0.81;422.27;0.00;0.00;0.62;;;;;15.10;1.00;;;;;;2260018;61;1109;-88
2021/12/25 16:06:30;425233.00;1.42;733.19;0.00;0.00;0.62;;;;;14.90;1.00;;;;;;2268145;61;1176;-88
2021/12/25 16:09:04;281832.00;0.94;486.69;0.00;0.00;0.62;;;;;14.50;1.00;;;;;;2268813;61;1561;-89
2021/12/25 16:11:32;587646.00;1.96;1012.89;35964.00;0.12;62.90;;;;;14.40;1.00;;;;;;2267748;61;1141;-88
2021/12/25 16:13:59;327623.00;1.09;565.40;0.00;0.00;0.62;;;;;14.30;1.00;;;;;;2263016;61;1108;-88
2021/12/25 16:16:27;332857.00;1.11;574.40;0.00;0.00;0.62;;;;;14.50;1.00;;;;;;2261911;61;1747;-88
2021/12/25 16:18:57;423745.00;1.41;730.63;0.00;0.00;0.62;;;;;14.50;1.00;;;;;;2261960;61;1761;-88
2021/12/25 16:21:25;489217.00;1.63;843.26;0.00;0.00;0.62;;;;;14.30;1.00;;;;;;2261938;61;1112;-88
2021/12/25 16:23:52;286250.00;0.95;494.28;0.00;0.00;0.62;;;;;14.30;1.00;;;;;;2262288;61;2021;-88
2021/12/25 16:26:21;420870.00;1.40;725.69;62062.00;0.21;108.04;;;;;14.00;1.00;;;;;;2261909;61;1185;-88
2021/12/25 16:28:48;392521.00;1.31;676.95;0.00;0.00;0.62;;;;;13.90;1.00;;;;;;2261309;61;1612;-88
2021/12/25 16:31:15;308714.00;1.03;532.90;0.00;0.00;0.62;;;;;13.90;1.00;;;;;;2262275;61;1060;-88
2021/12/25 16:33:43;305198.00;1.02;526.86;0.00;0.00;0.62;;;;;14.10;1.00;;;;;;2265848;61;1168;-88
2021/12/25 16:36:11;322719.00;1.08;556.97;0.00;0.00;0.62;;;;;14.20;1.00;;;;;;2266815;61;1141;-88
2021/12/25 16:38:38;252238.00;0.84;435.80;0.00;0.00;0.62;;;;;14.10;1.00;;;;;;2266768;61;1399;-88
2021/12/25 16:41:07;418851.00;1.40;722.21;0.00;0.00;0.62;;;;;13.80;1.00;;;;;;2266944;61;1228;-88
2021/12/25 16:43:37;293187.00;0.98;506.21;24674.00;0.08;43.36;;;;;13.60;1.00;;;;;;2267487;61;2016;-89
2021/12/25 16:46:08;273488.00;0.91;472.34;0.00;0.00;0.62;;;;;13.20;1.00;;;;;;2263610;61;1605;-88
2021/12/25 16:48:35;406059.00;1.35;700.22;0.00;0.00;0.62;;;;;12.90;1.40;;;;;;2265911;61;1688;-88
2021/12/25 16:51:03;285612.00;0.95;493.19;0.00;0.00;0.62;;;;;12.80;2.20;;;;;;2265199;61;1184;-89
2021/12/25 16:53:30;313620.00;1.05;541.33;0.00;0.00;0.62;;;;;12.80;2.60;;;;;;2266083;61;1156;-88
2021/12/25 16:56:00;196997.00;0.66;340.75;0.00;0.00;0.62;;;;;12.90;2.10;;;;;;2263109;61;1100;-88
2021/12/25 16:58:27;373861.00;1.25;644.87;0.00;0.00;0.62;;;;;13.00;2.20;;;;;;2263392;61;1487;-89
2021/12/25 17:00:58;278048.00;0.93;480.18;0.00;0.00;0.62;;;;;13.20;1.20;;;;;;2263482;61;1182;-89
2021/12/25 17:03:26;234357.00;0.78;405.04;0.00;0.00;0.62;;;;;13.50;1.00;;;;;;2263566;61;2017;-89
2021/12/25 17:05:53;219138.00;0.73;378.86;0.00;0.00;0.62;;;;;13.40;1.00;;;;;;2259261;61;1041;-87
2021/12/25 17:08:21;431722.00;1.44;744.35;0.00;0.00;0.62;;;;;13.20;1.20;;;;;;2256069;61;1377;-88
2021/12/25 17:10:48;328130.00;1.09;566.27;0.00;0.00;0.62;;;;;12.90;2.30;;;;;;2256210;61;1068;-88
2021/12/25 17:13:15;421587.00;1.41;726.92;0.00;0.00;0.62;;;;;12.80;2.40;;;;;;2257403;61;1012;-88
2021/12/25 17:15:45;383300.00;1.28;661.10;0.00;0.00;0.62;;;;;12.90;2.40;;;;;;2264302;61;1078;-89
2021/12/25 17:18:15;231762.00;0.77;400.58;0.00;0.00;0.62;;;;;13.20;1.30;;;;;;2264289;61;1391;-87
2021/12/25 17:20:46;363712.00;1.21;627.43;0.00;0.00;0.62;;;;;13.40;1.30;;;;;;2264123;61;1013;-88
2021/12/25 17:23:14;319559.00;1.07;551.54;0.00;0.00;0.62;;;;;13.50;1.00;;;;;;2264940;61;2009;-89
2021/12/25 17:25:44;319699.00;1.07;551.78;0.00;0.00;0.62;;;;;13.60;1.00;;;;;;2259986;61;1028;-90
2021/12/25 17:30:44;24786.00;0.08;43.56;0.00;0.00;0.62;;;;;13.60;1.00;;;;;;2274991;61;1292;-88
2021/12/25 18:41:31;50857.00;0.17;88.67;0.00;0.00;0.62;;;;;12.80;2.30;;;;;;2522414;55;3525;31
2021/12/25 21:22:34;192622.00;0.64;333.22;0.00;0.00;0.62;;;;;8.80;12.50;;;;;;2282960;61;1938;-89
2021/12/25 22:19:44;98301.00;0.33;170.64;0.00;0.00;0.62;;;;;7.90;14.60;;;;;;2275050;61;926;-87
2021/12/25 22:44:48;102671.00;0.34;178.18;0.00;0.00;0.62;;;;;8.10;13.80;;;;;;2274783;61;920;-87
2021/12/25 23:41:58;1162730.00;3.88;2022.98;203032.00;0.68;351.14;;;;;7.70;14.00;;;;;;2278644;61;915;-87
